Time;durP1;ratioP1;P1;durP2;ratioP2;P2;SDS_P1;SDS_P2;PMS_P1;PMS_P2;Temp;Humidity;BMP_temperature;BMP_pressure;BME280_temperature;BME280_humidity;BME280_pressure;Samples;Min_cycle;Max_cycle;Signal;HPM_P1;HPM_P2
2022/01/23 00:00:28;;;;;;;9.83;6.57;;;;;;;;;;4982252;28;20221;-74
2022/01/23 00:03:00;;;;;;;7.80;6.20;;;;;;;;;;5014724;28;20307;-74
2022/01/23 00:05:33;;;;;;;9.80;6.30;;;;;;;;;;5016289;28;20744;-74
2022/01/23 00:08:00;;;;;;;8.87;6.23;;;;;;;;;;5018855;28;20297;-73
2022/01/23 00:10:28;;;;;;;10.27;6.60;;;;;;;;;;4995865;28;20221;-73
2022/01/23 00:13:06;;;;;;;12.87;6.37;;;;;;;;;;5009102;28;20229;-73
2022/01/23 00:18:21;;;;;;;9.90;5.53;;;;;;;;;;4995927;28;20294;-72
2022/01/23 00:20:47;;;;;;;7.67;5.67;;;;;;;;;;4977526;28;20346;-72
2022/01/23 00:23:27;;;;;;;8.67;6.17;;;;;;;;;;4975841;28;20213;-73
2022/01/23 00:31:27;;;;;;;11.40;6.20;;;;;;;;;;4990877;28;20220;-73
2022/01/23 00:33:56;;;;;;;6.27;5.57;;;;;;;;;;5009276;28;20613;-72
2022/01/23 00:36:22;;;;;;;11.30;6.07;;;;;;;;;;4977113;28;20718;-72
2022/01/23 00:38:50;;;;;;;8.37;6.30;;;;;;;;;;4973567;28;20240;-72
2022/01/23 00:41:16;;;;;;;7.27;5.87;;;;;;;;;;4973567;28;20225;-72
2022/01/23 00:43:43;;;;;;;10.67;6.23;;;;;;;;;;4976604;28;20618;-72
2022/01/23 00:49:13;;;;;;;10.80;7.57;;;;;;;;;;5012219;28;20219;-73
2022/01/23 00:51:38;;;;;;;8.13;6.30;;;;;;;;;;4999137;28;20247;-72
2022/01/23 00:54:09;;;;;;;9.60;6.87;;;;;;;;;;4978058;28;20226;-72
2022/01/23 00:56:39;;;;;;;11.83;7.43;;;;;;;;;;4993406;28;20304;-72
2022/01/23 00:59:07;;;;;;;12.13;8.07;;;;;;;;;;4993550;28;20221;-72
2022/01/23 01:01:33;;;;;;;7.93;6.73;;;;;;;;;;4993431;28;20299;-72
2022/01/23 01:04:04;;;;;;;10.27;7.07;;;;;;;;;;4995145;28;20225;-72
2022/01/23 01:06:29;;;;;;;9.30;6.77;;;;;;;;;;4964061;28;20229;-73
2022/01/23 01:09:01;;;;;;;11.53;7.10;;;;;;;;;;4996777;28;20223;-71
2022/01/23 01:30:27;;;;;;;8.70;7.40;;;;;;;;;;4998725;28;20247;-71
2022/01/23 01:36:01;;;;;;;11.87;7.83;;;;;;;;;;5013745;28;20298;-72
2022/01/23 01:38:25;;;;;;;11.73;8.30;;;;;;;;;;4998150;28;20218;-72
2022/01/23 01:40:53;;;;;;;10.93;8.53;;;;;;;;;;5011601;28;20224;-73
2022/01/23 01:43:19;;;;;;;10.20;8.50;;;;;;;;;;4975677;28;20355;-72
2022/01/23 01:45:47;;;;;;;9.37;7.67;;;;;;;;;;4992862;28;20312;-72
2022/01/23 01:48:19;;;;;;;10.00;7.73;;;;;;;;;;4997811;28;20687;-72
2022/01/23 01:50:47;;;;;;;8.93;7.03;;;;;;;;;;4996528;28;20358;-72
2022/01/23 01:53:17;;;;;;;10.33;7.63;;;;;;;;;;4995522;28;20863;-72
2022/01/23 01:55:47;;;;;;;10.53;7.37;;;;;;;;;;4995253;28;20259;-72
2022/01/23 01:58:44;;;;;;;8.60;7.10;;;;;;;;;;5011275;28;20209;-72
2022/01/23 02:02:47;;;;;;;10.20;7.20;;;;;;;;;;5013917;28;20220;-72
2022/01/23 02:09:44;;;;;;;8.23;7.30;;;;;;;;;;4996791;28;20244;-73
2022/01/23 02:50:52;;;;;;;10.17;7.63;;;;;;;;;;5016184;28;20752;-72
2022/01/23 02:56:04;;;;;;;12.60;7.70;;;;;;;;;;5009860;28;20217;-73
2022/01/23 02:58:47;;;;;;;11.40;8.20;;;;;;;;;;5017454;28;20224;-73
2022/01/23 03:01:18;;;;;;;9.57;7.97;;;;;;;;;;4992210;28;20225;-72
2022/01/23 03:04:13;;;;;;;12.40;8.43;;;;;;;;;;4979663;28;20217;-72
2022/01/23 03:10:07;;;;;;;12.47;9.00;;;;;;;;;;4976303;28;20253;-72
2022/01/23 03:29:15;;;;;;;10.50;9.27;;;;;;;;;;5012174;28;20216;-73
2022/01/23 03:31:52;;;;;;;12.97;9.00;;;;;;;;;;4994757;28;20733;-72
2022/01/23 03:34:22;;;;;;;12.43;9.30;;;;;;;;;;4961805;28;20232;-72
2022/01/23 03:36:48;;;;;;;10.30;8.60;;;;;;;;;;5011305;28;20220;-72
2022/01/23 03:39:23;;;;;;;12.80;9.70;;;;;;;;;;5009178;28;20235;-72
2022/01/23 03:41:54;;;;;;;12.27;8.90;;;;;;;;;;4990919;28;20217;-71
2022/01/23 03:44:26;;;;;;;13.13;8.90;;;;;;;;;;4974447;28;20217;-72
2022/01/23 03:47:13;;;;;;;12.87;8.97;;;;;;;;;;4975089;28;20687;-71
2022/01/23 03:49:44;;;;;;;11.50;8.70;;;;;;;;;;4978024;28;20225;-72
2022/01/23 03:52:32;;;;;;;10.80;8.37;;;;;;;;;;4996727;28;20307;-72
2022/01/23 03:55:03;;;;;;;10.63;9.03;;;;;;;;;;4993445;28;20253;-73
2022/01/23 03:57:35;;;;;;;11.40;8.00;;;;;;;;;;4978266;28;20224;-73
2022/01/23 04:00:05;;;;;;;9.07;7.97;;;;;;;;;;4977161;28;20221;-73
2022/01/23 04:02:41;;;;;;;9.93;7.77;;;;;;;;;;4979958;28;20216;-73
2022/01/23 04:05:13;;;;;;;12.73;8.10;;;;;;;;;;5010729;28;20213;-72
2022/01/23 04:07:39;;;;;;;10.60;8.70;;;;;;;;;;4992756;28;20286;-71
2022/01/23 04:10:12;;;;;;;11.10;8.60;;;;;;;;;;5009037;28;20243;-72
2022/01/23 05:04:53;;;;;;;11.23;9.10;;;;;;;;;;5001896;28;20231;-72
2022/01/23 05:07:46;;;;;;;10.10;8.47;;;;;;;;;;5004974;28;20229;-73
2022/01/23 05:10:20;;;;;;;10.07;8.10;;;;;;;;;;4983467;28;20228;-72
2022/01/23 05:12:55;;;;;;;11.47;8.17;;;;;;;;;;4997356;28;20227;-73
2022/01/23 05:15:21;;;;;;;12.77;8.60;;;;;;;;;;4980004;28;20294;-72
2022/01/23 05:17:49;;;;;;;9.37;7.53;;;;;;;;;;5029560;28;20231;-73
2022/01/23 05:20:17;;;;;;;10.13;8.30;;;;;;;;;;4980371;28;20221;-72
2022/01/23 05:22:53;;;;;;;8.83;7.60;;;;;;;;;;4977376;28;20224;-72
2022/01/23 05:25:23;;;;;;;9.83;8.27;;;;;;;;;;4977852;28;20695;-74
2022/01/23 05:27:52;;;;;;;10.63;7.70;;;;;;;;;;5006459;28;20598;-73
2022/01/23 05:30:20;;;;;;;11.90;8.37;;;;;;;;;;4996440;28;20221;-73
2022/01/23 05:32:49;;;;;;;11.63;8.47;;;;;;;;;;4993308;28;20651;-73
2022/01/23 05:35:17;;;;;;;10.63;8.03;;;;;;;;;;4992539;28;20248;-72
2022/01/23 05:37:45;;;;;;;11.73;8.23;;;;;;;;;;4973123;28;20227;-72
2022/01/23 05:40:24;;;;;;;11.30;8.60;;;;;;;;;;4982201;28;20556;-72
2022/01/23 05:42:54;;;;;;;9.83;7.43;;;;;;;;;;4997157;28;20224;-73
2022/01/23 05:45:20;;;;;;;9.00;7.97;;;;;;;;;;4980449;28;20231;-73
2022/01/23 05:48:04;;;;;;;10.37;7.70;;;;;;;;;;4979039;28;20288;-73
2022/01/23 05:51:10;;;;;;;9.07;7.97;;;;;;;;;;4981883;28;20237;-73
2022/01/23 05:53:56;;;;;;;8.40;7.13;;;;;;;;;;5012150;28;20930;-72
2022/01/23 05:56:56;;;;;;;7.83;7.03;;;;;;;;;;5000745;28;20304;-73
2022/01/23 05:59:59;;;;;;;7.30;6.60;;;;;;;;;;4991200;28;20221;-74
2022/01/23 06:02:27;;;;;;;9.53;6.80;;;;;;;;;;4986244;28;20303;-72
2022/01/23 06:04:55;;;;;;;7.77;6.83;;;;;;;;;;4995147;28;20239;-72
2022/01/23 06:07:53;;;;;;;9.87;7.30;;;;;;;;;;4974505;28;20742;-72
2022/01/23 06:10:24;;;;;;;9.20;7.10;;;;;;;;;;4981531;28;20212;-73
2022/01/23 06:12:51;;;;;;;8.50;6.83;;;;;;;;;;4995684;28;20747;-71
2022/01/23 06:15:19;;;;;;;8.03;7.13;;;;;;;;;;4978629;28;20224;-71
2022/01/23 06:17:45;;;;;;;9.53;6.93;;;;;;;;;;4995106;28;20706;-73
2022/01/23 06:20:29;;;;;;;6.93;6.23;;;;;;;;;;4997615;28;20606;-71
2022/01/23 06:23:13;;;;;;;7.80;6.20;;;;;;;;;;5009882;28;20228;-72
2022/01/23 06:26:14;;;;;;;8.43;6.60;;;;;;;;;;4998872;28;20808;-71
2022/01/23 06:28:45;;;;;;;8.47;6.47;;;;;;;;;;4992122;28;20213;-71
2022/01/23 06:31:11;;;;;;;9.30;6.53;;;;;;;;;;4975030;28;20230;-72
2022/01/23 06:33:39;;;;;;;9.57;6.57;;;;;;;;;;4986614;28;20220;-72
2022/01/23 06:36:05;;;;;;;9.03;7.13;;;;;;;;;;5010571;28;20225;-72
2022/01/23 06:38:35;;;;;;;8.57;6.97;;;;;;;;;;4991173;28;20240;-72
2022/01/23 06:41:04;;;;;;;9.23;6.90;;;;;;;;;;4975356;28;20347;-72
2022/01/23 06:44:05;;;;;;;9.77;7.43;;;;;;;;;;4947398;28;20767;-71
2022/01/23 06:46:42;;;;;;;8.23;6.87;;;;;;;;;;4972198;28;20229;-72
2022/01/23 06:49:10;;;;;;;8.53;6.60;;;;;;;;;;4988986;28;20239;-72
2022/01/23 06:51:39;;;;;;;7.47;6.57;;;;;;;;;;4994839;28;20829;-72
2022/01/23 06:54:07;;;;;;;8.53;6.77;;;;;;;;;;4991201;28;20272;-72
2022/01/23 06:56:34;;;;;;;7.83;6.20;;;;;;;;;;4976268;28;20217;-71
2022/01/23 06:59:00;;;;;;;8.83;6.33;;;;;;;;;;5010424;28;20221;-72
2022/01/23 07:01:29;;;;;;;7.30;6.00;;;;;;;;;;4999857;28;20218;-72
2022/01/23 07:04:04;;;;;;;7.47;6.07;;;;;;;;;;4980984;28;20235;-72
2022/01/23 07:06:33;;;;;;;9.10;6.97;;;;;;;;;;4991753;28;20275;-73
2022/01/23 07:09:19;;;;;;;7.30;6.30;;;;;;;;;;5015788;28;20221;-71
2022/01/23 07:12:03;;;;;;;7.87;6.43;;;;;;;;;;4997372;28;20772;-73
2022/01/23 07:14:48;;;;;;;9.83;7.90;;;;;;;;;;5013397;28;20228;-73
2022/01/23 07:17:32;;;;;;;8.00;5.83;;;;;;;;;;5010814;28;20236;-73
2022/01/23 07:20:04;;;;;;;7.83;6.37;;;;;;;;;;4992845;28;20371;-74
2022/01/23 07:22:38;;;;;;;10.23;7.17;;;;;;;;;;4980885;28;20227;-73
2022/01/23 07:25:09;;;;;;;9.30;7.13;;;;;;;;;;4991098;28;20236;-73
2022/01/23 07:27:46;;;;;;;9.53;6.93;;;;;;;;;;4991602;28;20791;-73
2022/01/23 07:30:28;;;;;;;7.47;6.63;;;;;;;;;;4990865;28;20220;-74
2022/01/23 07:32:54;;;;;;;9.37;7.50;;;;;;;;;;4996276;28;20252;-74
2022/01/23 07:35:19;;;;;;;9.17;7.00;;;;;;;;;;4993588;28;20299;-73
2022/01/23 07:37:45;;;;;;;9.33;7.57;;;;;;;;;;4997482;28;20220;-74
2022/01/23 07:40:13;;;;;;;11.97;8.17;;;;;;;;;;4998429;28;20232;-74
2022/01/23 07:42:43;;;;;;;10.17;7.10;;;;;;;;;;4984807;28;20228;-73
2022/01/23 07:45:29;;;;;;;8.70;7.60;;;;;;;;;;4974698;28;20236;-73
2022/01/23 07:48:16;;;;;;;8.23;6.73;;;;;;;;;;4982979;28;20228;-72
2022/01/23 07:50:58;;;;;;;13.23;8.40;;;;;;;;;;5001331;28;20228;-73
2022/01/23 07:53:47;;;;;;;9.97;7.83;;;;;;;;;;5000195;28;20691;-72
2022/01/23 07:56:34;;;;;;;10.63;7.33;;;;;;;;;;4979850;28;20217;-72
2022/01/23 07:59:21;;;;;;;9.90;7.77;;;;;;;;;;5004286;28;20409;-73
2022/01/23 08:02:05;;;;;;;11.13;7.67;;;;;;;;;;5002300;28;20299;-72
2022/01/23 08:04:40;;;;;;;11.33;8.67;;;;;;;;;;5004756;28;20228;-73
2022/01/23 08:07:20;;;;;;;10.43;7.80;;;;;;;;;;4985793;28;20239;-72
2022/01/23 08:10:00;;;;;;;8.83;6.73;;;;;;;;;;4986481;28;20251;-74
2022/01/23 08:12:27;;;;;;;9.50;6.87;;;;;;;;;;4961240;28;20227;-73
2022/01/23 08:14:53;;;;;;;8.43;6.63;;;;;;;;;;4980319;28;20232;-73
2022/01/23 08:17:19;;;;;;;10.17;7.00;;;;;;;;;;4985641;28;20236;-72
2022/01/23 08:19:46;;;;;;;12.53;8.27;;;;;;;;;;4994278;28;20221;-73
2022/01/23 08:22:14;;;;;;;9.97;7.10;;;;;;;;;;4987689;28;20254;-74
2022/01/23 08:24:40;;;;;;;8.87;7.03;;;;;;;;;;4986870;28;20360;-73
2022/01/23 08:27:06;;;;;;;9.80;7.10;;;;;;;;;;5006068;28;20263;-73
2022/01/23 08:29:35;;;;;;;9.67;7.30;;;;;;;;;;5003058;28;20249;-74
2022/01/23 08:32:01;;;;;;;8.57;6.30;;;;;;;;;;4985174;28;20221;-71
2022/01/23 08:34:29;;;;;;;8.93;6.90;;;;;;;;;;4981432;28;20232;-72
2022/01/23 08:36:55;;;;;;;8.43;7.07;;;;;;;;;;4994368;28;20213;-72
2022/01/23 08:39:24;;;;;;;8.60;7.03;;;;;;;;;;4993612;28;20228;-72
2022/01/23 08:41:53;;;;;;;8.33;6.90;;;;;;;;;;4964513;28;20338;-72
2022/01/23 08:44:23;;;;;;;9.13;7.33;;;;;;;;;;5003719;28;20229;-72
2022/01/23 08:46:52;;;;;;;8.10;6.87;;;;;;;;;;4989908;28;20233;-72
2022/01/23 08:49:21;;;;;;;10.90;6.97;;;;;;;;;;5009855;28;20228;-72
2022/01/23 08:51:50;;;;;;;7.30;6.33;;;;;;;;;;4973859;28;20311;-71
2022/01/23 08:54:22;;;;;;;9.30;7.20;;;;;;;;;;4993675;28;20220;-73
2022/01/23 08:56:51;;;;;;;9.10;7.90;;;;;;;;;;4993643;28;20232;-74
2022/01/23 08:59:16;;;;;;;10.57;7.77;;;;;;;;;;4992290;28;20221;-73
2022/01/23 09:01:47;;;;;;;9.53;7.30;;;;;;;;;;4976733;28;20269;-73
2022/01/23 09:04:15;;;;;;;9.20;8.30;;;;;;;;;;5004721;28;20212;-71
2022/01/23 09:07:09;;;;;;;9.73;7.53;;;;;;;;;;5006171;28;20272;-72
2022/01/23 09:09:38;;;;;;;9.17;8.10;;;;;;;;;;5011044;28;20229;-72
2022/01/23 09:12:20;;;;;;;10.20;7.97;;;;;;;;;;4994886;28;20391;-75
2022/01/23 09:14:46;;;;;;;8.43;7.07;;;;;;;;;;4995685;28;20213;-72
2022/01/23 09:17:12;;;;;;;9.40;7.97;;;;;;;;;;4963420;28;20233;-72
2022/01/23 09:19:39;;;;;;;12.73;8.10;;;;;;;;;;4995947;28;20603;-73
2022/01/23 09:22:04;;;;;;;11.50;8.40;;;;;;;;;;5013366;28;20709;-71
2022/01/23 09:24:31;;;;;;;9.13;8.03;;;;;;;;;;4980770;28;20223;-71
2022/01/23 09:27:05;;;;;;;8.17;7.33;;;;;;;;;;4979614;28;20718;-73
2022/01/23 09:29:40;;;;;;;10.23;7.83;;;;;;;;;;5010843;28;20221;-71
2022/01/23 09:32:13;;;;;;;9.97;7.80;;;;;;;;;;4977689;28;20244;-73
2022/01/23 09:34:42;;;;;;;11.47;7.93;;;;;;;;;;4959599;28;20221;-71
2022/01/23 09:37:09;;;;;;;9.57;7.87;;;;;;;;;;5012007;28;20235;-72
2022/01/23 09:39:36;;;;;;;9.03;8.13;;;;;;;;;;4970794;28;20217;-71
2022/01/23 09:42:10;;;;;;;9.27;7.60;;;;;;;;;;5000563;28;20224;-72
2022/01/23 09:44:45;;;;;;;9.17;8.23;;;;;;;;;;4967656;28;20220;-71
2022/01/23 09:47:14;;;;;;;10.00;8.73;;;;;;;;;;4993411;28;20235;-74
2022/01/23 09:49:42;;;;;;;11.30;9.07;;;;;;;;;;5011073;28;20667;-74
2022/01/23 09:52:07;;;;;;;12.00;8.53;;;;;;;;;;4958001;28;20714;-74
2022/01/23 09:54:33;;;;;;;10.90;8.57;;;;;;;;;;4995720;28;20224;-72
2022/01/23 09:57:04;;;;;;;9.33;8.30;;;;;;;;;;4962021;28;20294;-72
2022/01/23 09:59:30;;;;;;;9.93;7.80;;;;;;;;;;4976843;28;20248;-72
2022/01/23 10:01:56;;;;;;;9.57;8.17;;;;;;;;;;4990373;28;20236;-73
2022/01/23 10:04:25;;;;;;;10.07;7.83;;;;;;;;;;4979078;28;20226;-72
2022/01/23 10:06:53;;;;;;;9.20;7.70;;;;;;;;;;4964559;28;20225;-72
2022/01/23 10:09:24;;;;;;;10.37;8.40;;;;;;;;;;5010981;28;20334;-72
2022/01/23 10:11:50;;;;;;;11.07;7.90;;;;;;;;;;4989323;28;20288;-72
2022/01/23 10:14:17;;;;;;;12.00;8.43;;;;;;;;;;4958552;28;20228;-72
2022/01/23 10:16:44;;;;;;;9.17;7.60;;;;;;;;;;5011656;28;20287;-72
2022/01/23 10:19:09;;;;;;;9.33;7.40;;;;;;;;;;4977713;28;20278;-71
2022/01/23 10:21:36;;;;;;;8.43;7.27;;;;;;;;;;4974524;28;20225;-73
2022/01/23 10:24:05;;;;;;;10.33;8.00;;;;;;;;;;4976181;28;20233;-73
2022/01/23 10:26:51;;;;;;;9.33;7.73;;;;;;;;;;4959049;28;20229;-74
2022/01/23 10:29:16;;;;;;;8.80;7.23;;;;;;;;;;4992153;28;20221;-72
2022/01/23 10:32:04;;;;;;;8.53;7.47;;;;;;;;;;4997852;28;20232;-73
2022/01/23 10:34:40;;;;;;;10.17;8.07;;;;;;;;;;5008878;28;20205;-73
2022/01/23 10:37:07;;;;;;;10.10;7.70;;;;;;;;;;5007611;28;20733;-71
2022/01/23 10:39:45;;;;;;;8.53;7.70;;;;;;;;;;4990460;28;20256;-73
2022/01/23 10:42:52;;;;;;;12.33;8.17;;;;;;;;;;4960465;28;20290;-72
2022/01/23 10:51:30;;;;;;;10.20;7.60;;;;;;;;;;4980162;28;20220;-74
2022/01/23 10:53:57;;;;;;;10.37;7.67;;;;;;;;;;4991824;28;20228;-72
2022/01/23 10:56:24;;;;;;;12.67;7.93;;;;;;;;;;5003289;28;20587;-72
2022/01/23 10:58:57;;;;;;;11.00;7.70;;;;;;;;;;4975619;28;20271;-72
2022/01/23 11:01:24;;;;;;;9.33;7.80;;;;;;;;;;4975141;28;20233;-73
2022/01/23 11:04:06;;;;;;;10.27;7.63;;;;;;;;;;4983566;28;20225;-73
2022/01/23 11:07:03;;;;;;;7.73;6.93;;;;;;;;;;4979538;28;20261;-74
2022/01/23 11:09:36;;;;;;;8.47;6.80;;;;;;;;;;4971640;28;20590;-73
2022/01/23 11:12:15;;;;;;;8.17;7.07;;;;;;;;;;4974915;28;20216;-74
2022/01/23 11:17:27;;;;;;;9.43;6.60;;;;;;;;;;4989049;28;20220;-74
2022/01/23 11:20:00;;;;;;;7.73;6.30;;;;;;;;;;4975372;28;20214;-72
2022/01/23 11:22:29;;;;;;;7.97;6.77;;;;;;;;;;5007881;28;20227;-72
2022/01/23 11:25:04;;;;;;;7.53;6.03;;;;;;;;;;4969295;28;20216;-73
2022/01/23 11:27:38;;;;;;;6.53;5.93;;;;;;;;;;4951060;28;20224;-72
2022/01/23 11:30:11;;;;;;;6.60;5.70;;;;;;;;;;4973957;28;20256;-73
2022/01/23 11:32:39;;;;;;;6.13;5.53;;;;;;;;;;4976822;28;20216;-72
2022/01/23 11:35:16;;;;;;;6.20;5.67;;;;;;;;;;5003391;28;20227;-72
2022/01/23 11:37:50;;;;;;;6.77;5.47;;;;;;;;;;4991206;28;20223;-73
2022/01/23 11:53:50;;;;;;;8.10;7.30;;;;;;;;;;4984578;28;20668;-71
2022/01/23 11:56:25;;;;;;;12.73;8.57;;;;;;;;;;4991127;28;20257;-73
2022/01/23 11:59:13;;;;;;;7.50;5.73;;;;;;;;;;4992515;28;20294;-72
2022/01/23 12:01:40;;;;;;;9.63;5.53;;;;;;;;;;4979958;28;20721;-72
2022/01/23 12:04:06;;;;;;;8.33;7.53;;;;;;;;;;4968835;28;20298;-71
2022/01/23 12:06:31;;;;;;;6.70;5.93;;;;;;;;;;5010149;28;20256;-72
2022/01/23 12:09:09;;;;;;;7.30;6.17;;;;;;;;;;4958145;28;20225;-72
2022/01/23 12:11:56;;;;;;;10.90;6.70;;;;;;;;;;4990707;28;20257;-72
2022/01/23 12:17:16;;;;;;;7.13;6.43;;;;;;;;;;4994549;28;20224;-72
2022/01/23 12:19:52;;;;;;;11.77;9.73;;;;;;;;;;5008138;28;20224;-73
2022/01/23 12:22:24;;;;;;;11.10;9.77;;;;;;;;;;4976454;28;20217;-71
2022/01/23 12:24:53;;;;;;;13.10;11.00;;;;;;;;;;5008899;28;20262;-71
2022/01/23 12:27:21;;;;;;;6.43;5.83;;;;;;;;;;4975654;28;20695;-72
2022/01/23 12:29:50;;;;;;;7.70;4.77;;;;;;;;;;4977521;28;20217;-73
2022/01/23 12:32:34;;;;;;;6.30;5.20;;;;;;;;;;5009312;28;20228;-73
2022/01/23 12:35:04;;;;;;;8.63;5.80;;;;;;;;;;4988817;28;20229;-72
2022/01/23 12:38:00;;;;;;;6.23;5.10;;;;;;;;;;4982873;28;20323;-72
2022/01/23 12:40:26;;;;;;;8.50;6.10;;;;;;;;;;5002416;28;20680;-74
2022/01/23 12:43:29;;;;;;;9.80;5.30;;;;;;;;;;4976168;28;20220;-72
2022/01/23 12:46:00;;;;;;;12.30;6.23;;;;;;;;;;4990650;28;20270;-73
2022/01/23 12:48:26;;;;;;;9.17;8.27;;;;;;;;;;4983806;28;20263;-73
2022/01/23 12:51:12;;;;;;;7.73;6.93;;;;;;;;;;5000491;28;20248;-73
2022/01/23 12:53:57;;;;;;;7.30;5.03;;;;;;;;;;4994748;28;20247;-71
2022/01/23 12:56:30;;;;;;;14.90;10.63;;;;;;;;;;5011586;28;20231;-72
2022/01/23 12:59:05;;;;;;;5.80;4.70;;;;;;;;;;4997298;28;20267;-72
2022/01/23 13:01:31;;;;;;;5.53;4.90;;;;;;;;;;4982019;28;20290;-72
2022/01/23 13:04:04;;;;;;;10.30;6.83;;;;;;;;;;5012978;28;20267;-71
2022/01/23 13:06:29;;;;;;;6.17;4.50;;;;;;;;;;4989111;28;20308;-73
2022/01/23 13:09:17;;;;;;;4.83;4.30;;;;;;;;;;4995250;28;20758;-73
2022/01/23 13:14:41;;;;;;;7.20;4.77;;;;;;;;;;4988211;28;20234;-72
2022/01/23 13:28:58;;;;;;;6.30;4.37;;;;;;;;;;4966848;28;20225;-73
2022/01/23 13:30:53;;;;;;;5.30;4.20;;;;;;;;;;5009364;28;20232;-73
2022/01/23 13:33:25;;;;;;;5.27;4.60;;;;;;;;;;4986850;28;20228;-72
2022/01/23 13:35:53;;;;;;;5.40;4.20;;;;;;;;;;4980121;28;20772;-74
2022/01/23 13:38:20;;;;;;;5.70;4.03;;;;;;;;;;5009735;28;20236;-73
2022/01/23 13:40:58;;;;;;;6.53;4.17;;;;;;;;;;4979231;28;20216;-73
2022/01/23 13:50:02;;;;;;;6.70;4.10;;;;;;;;;;4998479;28;20763;-73
2022/01/23 13:51:58;;;;;;;8.63;5.53;;;;;;;;;;4993193;28;20256;-72
2022/01/23 13:59:57;;;;;;;7.47;5.57;;;;;;;;;;4996909;28;20213;-72
2022/01/23 14:02:35;;;;;;;8.20;5.23;;;;;;;;;;4995211;28;20231;-73
2022/01/23 14:05:17;;;;;;;5.90;4.43;;;;;;;;;;4977514;28;20246;-72
2022/01/23 14:07:55;;;;;;;8.73;4.87;;;;;;;;;;5010426;28;20221;-73
2022/01/23 14:10:22;;;;;;;4.67;3.60;;;;;;;;;;4993207;28;20220;-74
2022/01/23 14:12:52;;;;;;;5.23;3.73;;;;;;;;;;4988123;28;20288;-72
2022/01/23 14:15:25;;;;;;;7.73;4.27;;;;;;;;;;4982189;28;20240;-74
2022/01/23 14:18:06;;;;;;;7.13;4.67;;;;;;;;;;4978620;28;20648;-73
2022/01/23 14:20:40;;;;;;;5.80;5.00;;;;;;;;;;4977941;28;20221;-73
2022/01/23 14:23:18;;;;;;;5.00;4.50;;;;;;;;;;4975281;28;20681;-73
2022/01/23 14:25:46;;;;;;;7.77;5.00;;;;;;;;;;4992080;28;20217;-74
2022/01/23 14:28:16;;;;;;;7.07;4.57;;;;;;;;;;4974959;28;20256;-74
2022/01/23 14:30:58;;;;;;;6.63;4.60;;;;;;;;;;4989926;28;20221;-72
2022/01/23 14:33:33;;;;;;;4.73;4.23;;;;;;;;;;4953430;28;20243;-73
2022/01/23 14:36:12;;;;;;;5.03;4.50;;;;;;;;;;4994626;28;20247;-72
2022/01/23 14:38:56;;;;;;;6.13;4.40;;;;;;;;;;5008063;28;20220;-73
2022/01/23 14:41:23;;;;;;;6.97;4.40;;;;;;;;;;4961494;28;20731;-72
2022/01/23 14:43:52;;;;;;;5.23;4.30;;;;;;;;;;4975709;28;20227;-73
2022/01/23 14:46:17;;;;;;;6.93;4.60;;;;;;;;;;5010724;28;20236;-73
2022/01/23 14:48:50;;;;;;;8.03;6.10;;;;;;;;;;4993413;28;20754;-73
2022/01/23 14:51:23;;;;;;;7.30;4.77;;;;;;;;;;4976650;28;20229;-71
2022/01/23 14:53:51;;;;;;;5.40;4.73;;;;;;;;;;4959604;28;20225;-72
2022/01/23 14:56:18;;;;;;;7.17;4.60;;;;;;;;;;4992219;28;20227;-72
2022/01/23 14:58:49;;;;;;;7.43;4.60;;;;;;;;;;4985661;28;20229;-73
2022/01/23 15:01:15;;;;;;;6.60;4.50;;;;;;;;;;4990284;28;20280;-72
2022/01/23 15:03:43;;;;;;;8.47;4.37;;;;;;;;;;4961121;28;20607;-71
2022/01/23 15:06:09;;;;;;;7.73;4.70;;;;;;;;;;4992407;28;20278;-72
2022/01/23 15:08:37;;;;;;;9.33;4.47;;;;;;;;;;4957080;28;20229;-72
2022/01/23 15:11:03;;;;;;;6.37;4.83;;;;;;;;;;5006877;28;20232;-74
2022/01/23 15:13:36;;;;;;;5.87;5.13;;;;;;;;;;4979317;28;20221;-71
2022/01/23 15:16:02;;;;;;;7.50;4.90;;;;;;;;;;4989259;28;20308;-71
2022/01/23 15:18:30;;;;;;;7.47;5.43;;;;;;;;;;4992024;28;20217;-72
2022/01/23 15:20:56;;;;;;;6.37;5.40;;;;;;;;;;4991537;28;20221;-72
2022/01/23 15:23:22;;;;;;;6.10;5.23;;;;;;;;;;5010414;28;20311;-73
2022/01/23 15:25:48;;;;;;;7.03;6.33;;;;;;;;;;4993071;28;20216;-72
2022/01/23 15:28:16;;;;;;;6.73;6.03;;;;;;;;;;5010860;28;20232;-72
2022/01/23 15:30:42;;;;;;;8.70;7.80;;;;;;;;;;4975531;28;20278;-74
2022/01/23 15:33:08;;;;;;;9.03;6.60;;;;;;;;;;4972941;28;20244;-73
2022/01/23 15:35:36;;;;;;;8.33;6.30;;;;;;;;;;5011970;28;20247;-72
2022/01/23 15:38:06;;;;;;;9.00;5.87;;;;;;;;;;4989763;28;20233;-72
2022/01/23 15:40:32;;;;;;;9.63;6.20;;;;;;;;;;4992741;28;20227;-73
2022/01/23 15:43:00;;;;;;;7.40;6.00;;;;;;;;;;5008494;28;20677;-74
2022/01/23 15:45:28;;;;;;;8.20;6.87;;;;;;;;;;4986152;28;20275;-73
2022/01/23 15:47:54;;;;;;;9.13;6.87;;;;;;;;;;4991025;28;20705;-72
2022/01/23 15:50:19;;;;;;;7.43;6.57;;;;;;;;;;4981376;28;20232;-73
2022/01/23 15:52:50;;;;;;;8.53;7.27;;;;;;;;;;5009871;28;20601;-72
2022/01/23 15:55:16;;;;;;;8.80;7.67;;;;;;;;;;4991904;28;20719;-72
2022/01/23 15:57:48;;;;;;;8.97;7.20;;;;;;;;;;5009184;28;20710;-72
2022/01/23 16:00:18;;;;;;;8.73;7.70;;;;;;;;;;5009681;28;20225;-73
2022/01/23 16:02:47;;;;;;;10.70;9.07;;;;;;;;;;4990428;28;20555;-71
2022/01/23 16:05:18;;;;;;;9.20;7.97;;;;;;;;;;4990388;28;20220;-72
2022/01/23 16:07:44;;;;;;;13.07;9.73;;;;;;;;;;5010956;28;20609;-71
2022/01/23 16:10:10;;;;;;;13.67;10.63;;;;;;;;;;4993586;28;20226;-72
2022/01/23 16:12:37;;;;;;;13.27;9.60;;;;;;;;;;4992991;28;20233;-72
2022/01/23 16:15:05;;;;;;;9.73;7.97;;;;;;;;;;4973910;28;20290;-72
2022/01/23 16:17:30;;;;;;;8.63;6.90;;;;;;;;;;4974532;28;20240;-72
2022/01/23 16:20:00;;;;;;;9.00;7.13;;;;;;;;;;4986397;28;20220;-71
2022/01/23 16:22:28;;;;;;;10.23;7.90;;;;;;;;;;4996939;28;20216;-72
2022/01/23 16:24:59;;;;;;;18.80;12.43;;;;;;;;;;5014250;28;20603;-73
2022/01/23 16:27:29;;;;;;;9.30;7.10;;;;;;;;;;5008376;28;20311;-71
2022/01/23 16:29:55;;;;;;;7.93;6.67;;;;;;;;;;4997835;28;20224;-72
2022/01/23 16:32:23;;;;;;;9.63;8.53;;;;;;;;;;4995618;28;20221;-71
2022/01/23 16:34:50;;;;;;;6.67;5.93;;;;;;;;;;5014482;28;20720;-71
2022/01/23 16:37:20;;;;;;;6.83;5.17;;;;;;;;;;4981875;28;20228;-72
2022/01/23 16:39:46;;;;;;;7.03;5.63;;;;;;;;;;5013231;28;20248;-70
2022/01/23 16:42:14;;;;;;;10.10;5.97;;;;;;;;;;4996197;28;20251;-73
2022/01/23 16:44:40;;;;;;;8.37;6.80;;;;;;;;;;5007865;28;20287;-72
2022/01/23 16:47:11;;;;;;;8.20;6.17;;;;;;;;;;4996882;28;20768;-71
2022/01/23 16:49:38;;;;;;;6.90;5.80;;;;;;;;;;4997773;28;20220;-71
2022/01/23 16:52:04;;;;;;;10.27;6.57;;;;;;;;;;4980117;28;20235;-71
2022/01/23 16:54:30;;;;;;;9.77;7.83;;;;;;;;;;4975761;28;20221;-71
2022/01/23 16:56:59;;;;;;;10.70;7.80;;;;;;;;;;4976414;28;20688;-72
2022/01/23 16:59:26;;;;;;;9.33;7.27;;;;;;;;;;5010362;28;20227;-71
2022/01/23 17:01:52;;;;;;;9.30;7.73;;;;;;;;;;4986254;28;20225;-70
2022/01/23 17:04:18;;;;;;;6.93;6.20;;;;;;;;;;4996687;28;20212;-74
2022/01/23 17:06:48;;;;;;;7.50;6.03;;;;;;;;;;4992545;28;20224;-72
2022/01/23 17:09:17;;;;;;;6.53;5.90;;;;;;;;;;5014122;28;20225;-73
2022/01/23 17:11:48;;;;;;;9.30;5.90;;;;;;;;;;4993576;28;20240;-71
2022/01/23 17:14:14;;;;;;;7.63;5.70;;;;;;;;;;4977308;28;20348;-71
2022/01/23 17:16:42;;;;;;;6.23;5.37;;;;;;;;;;5014048;28;20216;-71
2022/01/23 17:19:13;;;;;;;12.40;10.70;;;;;;;;;;4992440;28;20212;-72
2022/01/23 17:21:38;;;;;;;9.23;6.77;;;;;;;;;;5014333;28;20231;-72
2022/01/23 17:24:05;;;;;;;6.47;4.80;;;;;;;;;;5012396;28;20232;-72
2022/01/23 17:26:33;;;;;;;5.90;4.47;;;;;;;;;;5006863;28;20225;-70
2022/01/23 17:28:59;;;;;;;7.80;5.73;;;;;;;;;;5012584;28;20316;-72
2022/01/23 17:31:29;;;;;;;6.67;5.40;;;;;;;;;;5009586;28;20671;-73
2022/01/23 17:33:55;;;;;;;8.70;5.00;;;;;;;;;;5011889;28;20225;-72
2022/01/23 17:36:21;;;;;;;18.93;13.27;;;;;;;;;;5012212;28;20743;-72
2022/01/23 17:38:49;;;;;;;5.83;5.23;;;;;;;;;;5006370;28;20220;-71
2022/01/23 17:41:19;;;;;;;4.50;4.10;;;;;;;;;;4976511;28;20225;-72
2022/01/23 17:43:49;;;;;;;7.97;5.87;;;;;;;;;;4978818;28;20691;-71
2022/01/23 17:46:21;;;;;;;5.60;4.43;;;;;;;;;;4986598;28;20265;-71
2022/01/23 17:49:04;;;;;;;7.27;4.77;;;;;;;;;;4997182;28;20220;-71
2022/01/23 17:51:32;;;;;;;13.20;11.90;;;;;;;;;;5013213;28;20236;-71
2022/01/23 17:54:00;;;;;;;9.23;8.10;;;;;;;;;;5013172;28;20217;-73
2022/01/23 17:56:27;;;;;;;7.10;5.23;;;;;;;;;;5012478;28;20278;-72
2022/01/23 17:58:53;;;;;;;13.37;9.13;;;;;;;;;;5014300;28;20637;-71
2022/01/23 18:01:19;;;;;;;8.33;7.43;;;;;;;;;;4993154;28;20228;-72
2022/01/23 18:03:47;;;;;;;6.77;5.67;;;;;;;;;;5009118;28;20217;-72
2022/01/23 18:06:21;;;;;;;8.37;6.67;;;;;;;;;;4978195;28;20232;-71
2022/01/23 18:08:47;;;;;;;10.23;7.53;;;;;;;;;;4997799;28;20304;-72
2022/01/23 18:11:12;;;;;;;7.50;5.40;;;;;;;;;;5012231;28;20220;-72
2022/01/23 18:13:44;;;;;;;7.57;6.20;;;;;;;;;;4995473;28;20238;-72
2022/01/23 18:16:12;;;;;;;7.60;5.63;;;;;;;;;;5012173;28;20225;-71
2022/01/23 18:18:40;;;;;;;8.93;5.90;;;;;;;;;;4980464;28;20225;-72
2022/01/23 18:21:05;;;;;;;13.20;7.33;;;;;;;;;;4995747;28;20708;-72
2022/01/23 18:23:31;;;;;;;7.73;6.93;;;;;;;;;;5013885;28;20269;-72
2022/01/23 18:26:01;;;;;;;8.30;7.00;;;;;;;;;;5010612;28;20346;-71
2022/01/23 18:28:30;;;;;;;8.30;7.17;;;;;;;;;;4986038;28;20232;-73